Time;durP1;ratioP1;P1;durP2;ratioP2;P2;SDS_P1;SDS_P2;PMS_P1;PMS_P2;Temp;Humidity;BMP_temperature;BMP_pressure;BME280_temperature;BME280_humidity;BME280_pressure;Samples;Min_cycle;Max_cycle;Signal;HPM_P1;HPM_P2
2022/03/14 04:28:36;;;;;;;;;;;;;;;3.05;100.00;100310.56;5149330;23;19929;-78
2022/03/14 04:31:02;;;;;;;;;;;;;;;3.06;100.00;100312.31;5013044;28;19921;-78
2022/03/14 04:33:27;;;;;;;;;;;;;;;3.10;100.00;100313.16;5013161;28;19920;-78
2022/03/14 04:35:53;;;;;;;;;;;;;;;3.05;100.00;100321.03;5013759;28;20471;-78
2022/03/14 04:38:19;;;;;;;;;;;;;;;3.04;100.00;100315.78;5013351;28;20008;-79
2022/03/14 04:40:44;;;;;;;;;;;;;;;3.02;100.00;100312.31;5013740;28;20008;-79
2022/03/14 04:43:09;;;;;;;;;;;;;;;2.95;100.00;100315.81;5012529;28;19922;-78
2022/03/14 04:45:36;;;;;;;;;;;;;;;2.98;100.00;100319.28;5013576;28;19940;-79
2022/03/14 04:48:02;;;;;;;;;;;;;;;2.91;100.00;100314.97;5012994;28;19917;-80
2022/03/14 04:50:27;;;;;;;;;;;;;;;2.89;100.00;100317.59;5012372;28;20004;-79
2022/03/14 04:52:53;;;;;;;;;;;;;;;2.86;100.00;100321.97;5013561;28;20028;-79
2022/03/14 04:55:19;;;;;;;;;;;;;;;2.94;100.00;100330.66;5013544;28;19921;-80
2022/03/14 04:57:44;;;;;;;;;;;;;;;3.09;100.00;100328.00;5012172;28;19968;-80
2022/03/14 05:00:09;;;;;;;;;;;;;;;3.15;100.00;100328.84;5013454;28;20012;-80
2022/03/14 05:02:35;;;;;;;;;;;;;;;3.07;100.00;100332.34;5011559;28;19965;-80
2022/03/14 05:05:00;;;;;;;;;;;;;;;3.03;100.00;100340.22;5012823;28;19922;-81
2022/03/14 05:07:26;;;;;;;;;;;;;;;3.02;100.00;100344.59;5013364;28;20291;-80
2022/03/14 05:09:51;;;;;;;;;;;;;;;3.10;100.00;100355.06;5011979;28;19918;-80
2022/03/14 05:12:16;;;;;;;;;;;;;;;2.94;100.00;100356.00;5010950;28;19928;-81
2022/03/14 05:14:41;;;;;;;;;;;;;;;2.92;100.00;100356.00;5012575;28;19924;-80
2022/03/14 05:17:07;;;;;;;;;;;;;;;2.88;100.00;100355.09;5013394;28;19921;-80
2022/03/14 05:19:32;;;;;;;;;;;;;;;2.95;100.00;100355.09;5013037;28;19917;-81
2022/03/14 05:21:58;;;;;;;;;;;;;;;2.93;100.00;100365.56;5012927;28;19951;-81
2022/03/14 05:24:23;;;;;;;;;;;;;;;2.88;100.00;100356.84;5011762;28;19918;-80
2022/03/14 05:26:51;;;;;;;;;;;;;;;2.94;100.00;100359.47;5011719;28;20284;-80
2022/03/14 05:29:16;;;;;;;;;;;;;;;2.87;100.00;100369.09;5012468;28;19929;-79
2022/03/14 05:31:42;;;;;;;;;;;;;;;2.85;100.00;100369.94;5012817;28;19921;-80
2022/03/14 05:34:07;;;;;;;;;;;;;;;2.79;100.00;100369.97;5011465;28;20136;-80
2022/03/14 08:55:14;;;;;;;;;;;;;;;2.68;81.62;100663.97;4934603;28;19973;-85
2022/03/14 08:57:40;;;;;;;;;;;;;;;2.65;81.45;100663.94;4952506;28;19927;-85
2022/03/14 09:00:07;;;;;;;;;;;;;;;2.65;81.92;100663.06;4976553;28;19962;-84
2022/03/14 09:02:32;;;;;;;;;;;;;;;2.65;81.84;100669.19;4953723;28;19934;-85
2022/03/14 09:04:58;;;;;;;;;;;;;;;2.62;81.40;100674.41;4977992;28;19918;-84
2022/03/14 09:07:27;;;;;;;;;;;;;;;2.65;81.30;100687.50;4953902;29;19918;-84
2022/03/14 09:09:53;;;;;;;;;;;;;;;2.63;81.08;100681.41;4968759;28;19976;-86
2022/03/14 09:12:19;;;;;;;;;;;;;;;2.65;80.83;100689.22;4954272;29;19953;-85
2022/03/14 09:14:46;;;;;;;;;;;;;;;2.67;81.15;100697.97;4953547;28;20039;-86
2022/03/14 09:17:14;;;;;;;;;;;;;;;2.67;81.08;100695.34;4953648;29;19918;-84
2022/03/14 09:19:40;;;;;;;;;;;;;;;2.68;81.13;100690.13;4977500;28;19925;-84
2022/03/14 09:22:09;;;;;;;;;;;;;;;2.68;80.61;100702.31;4951594;28;20392;-84
2022/03/14 09:24:36;;;;;;;;;;;;;;;2.68;80.65;100697.09;4951692;28;19923;-83
2022/03/14 09:27:02;;;;;;;;;;;;;;;2.69;80.30;100707.56;4953583;29;19929;-84
2022/03/14 09:29:27;;;;;;;;;;;;;;;2.73;80.26;100693.63;4954137;28;19931;-84
2022/03/14 09:31:53;;;;;;;;;;;;;;;2.70;80.20;100683.16;4953225;28;19998;-84
2022/03/14 09:34:18;;;;;;;;;;;;;;;2.71;80.14;100682.28;4954524;28;20254;-85
2022/03/14 09:36:43;;;;;;;;;;;;;;;2.72;79.86;100686.63;4952554;28;19922;-85
2022/03/14 09:39:12;;;;;;;;;;;;;;;2.75;79.77;100690.16;4976144;28;19929;-84
2022/03/14 09:41:39;;;;;;;;;;;;;;;2.74;79.72;100704.97;4953413;28;19949;-85
2022/03/14 09:44:09;;;;;;;;;;;;;;;2.77;79.87;100709.34;4953774;28;19922;-85
2022/03/14 09:46:36;;;;;;;;;;;;;;;2.78;79.93;100711.13;4953609;28;19918;-85
2022/03/14 09:49:01;;;;;;;;;;;;;;;2.80;80.06;100715.47;4953777;28;19914;-85
2022/03/14 09:51:27;;;;;;;;;;;;;;;2.87;80.60;100716.34;4952905;28;20013;-84
2022/03/14 09:53:52;;;;;;;;;;;;;;;2.91;81.24;100723.38;4953031;28;20282;-84
2022/03/14 09:56:18;;;;;;;;;;;;;;;2.90;81.52;100727.75;4952442;29;19938;-84
2022/03/14 09:58:45;;;;;;;;;;;;;;;2.95;81.60;100735.56;4953197;28;20017;-84
2022/03/14 10:01:10;;;;;;;;;;;;;;;2.97;81.87;100727.72;4953802;28;20293;-86
2022/03/14 10:03:36;;;;;;;;;;;;;;;2.95;81.78;100739.94;4951465;28;19927;-85
2022/03/14 10:06:01;;;;;;;;;;;;;;;2.91;81.88;100733.84;4952678;28;19965;-84
2022/03/14 10:08:26;;;;;;;;;;;;;;;2.91;81.89;100739.06;4952418;28;19934;-85
2022/03/14 10:10:52;;;;;;;;;;;;;;;2.91;81.72;100742.56;4950868;28;19922;-85
2022/03/14 10:13:17;;;;;;;;;;;;;;;2.99;81.75;100729.50;4952095;28;19930;-88
2022/03/14 10:15:43;;;;;;;;;;;;;;;2.96;81.52;100731.25;4951521;28;19929;-85
2022/03/14 10:18:15;;;;;;;;;;;;;;;2.99;81.42;100736.50;4950673;28;19927;-86
2022/03/14 10:21:05;;;;;;;;;;;;;;;2.99;81.46;100739.97;4950852;28;19974;-85
2022/03/14 10:23:43;;;;;;;;;;;;;;;3.02;81.11;100741.75;4951092;28;19973;-85
2022/03/14 10:26:12;;;;;;;;;;;;;;;2.95;80.98;100740.81;4968339;28;20420;-86
2022/03/14 10:28:38;;;;;;;;;;;;;;;2.99;80.61;100742.59;4951740;29;19918;-84
2022/03/14 10:31:04;;;;;;;;;;;;;;;3.04;80.42;100743.47;4951466;28;19977;-85
2022/03/14 10:33:31;;;;;;;;;;;;;;;3.05;80.29;100747.84;4953293;28;20342;-85
2022/03/14 10:35:57;;;;;;;;;;;;;;;3.11;80.19;100746.13;4976155;28;19926;-85
2022/03/14 10:38:23;;;;;;;;;;;;;;;3.11;80.11;100752.22;4950142;28;19974;-85
2022/03/14 10:40:48;;;;;;;;;;;;;;;3.11;80.38;100738.25;4953807;28;19952;-85
2022/03/14 10:43:24;;;;;;;;;;;;;;;3.10;80.00;100737.41;4953311;28;19944;-85
2022/03/14 10:45:49;;;;;;;;;;;;;;;3.13;79.88;100745.25;4951310;28;20464;-85
2022/03/14 10:48:14;;;;;;;;;;;;;;;3.14;79.44;100740.88;4951826;28;19925;-85
2022/03/14 10:50:41;;;;;;;;;;;;;;;3.14;79.52;100747.00;4953262;28;19926;-85
2022/03/14 10:53:06;;;;;;;;;;;;;;;3.14;79.27;100743.50;4951780;28;19921;-85
2022/03/14 10:55:35;;;;;;;;;;;;;;;3.13;79.19;100739.13;4953121;28;20005;-84
2022/03/14 10:58:10;;;;;;;;;;;;;;;3.17;79.11;100746.13;4952857;28;19933;-84
2022/03/14 11:00:44;;;;;;;;;;;;;;;3.16;79.36;100741.75;4953271;28;19922;-84
2022/03/14 11:03:10;;;;;;;;;;;;;;;3.17;79.43;100738.28;4950411;29;19930;-86
2022/03/14 11:05:44;;;;;;;;;;;;;;;3.20;79.28;100733.06;4953330;28;19922;-84
2022/03/14 11:08:26;;;;;;;;;;;;;;;3.20;79.13;100733.06;4952409;28;19923;-85
2022/03/14 11:10:51;;;;;;;;;;;;;;;3.21;78.96;100729.56;4951380;28;19922;-84
2022/03/14 11:13:16;;;;;;;;;;;;;;;3.33;79.03;100734.81;4951915;28;20304;-84
2022/03/14 11:15:43;;;;;;;;;;;;;;;3.29;78.73;100735.69;4953182;28;19929;-84
2022/03/14 11:18:08;;;;;;;;;;;;;;;3.30;79.23;100737.44;4951405;28;20009;-83
2022/03/14 11:20:33;;;;;;;;;;;;;;;3.34;78.97;100735.72;4952701;28;20017;-84
2022/03/14 11:22:59;;;;;;;;;;;;;;;3.35;78.76;100733.09;4953977;28;20377;-84
2022/03/14 11:25:24;;;;;;;;;;;;;;;3.38;78.72;100737.44;4955938;29;19952;-84
2022/03/14 11:27:50;;;;;;;;;;;;;;;3.35;78.54;100740.94;4955126;29;19929;-84
2022/03/14 11:30:16;;;;;;;;;;;;;;;3.36;78.73;100734.81;4956946;28;20485;-85
2022/03/14 11:32:42;;;;;;;;;;;;;;;3.37;78.77;100743.56;4971886;28;19972;-85
2022/03/14 11:35:08;;;;;;;;;;;;;;;3.43;78.86;100744.47;4956625;28;19922;-84
2022/03/14 11:37:33;;;;;;;;;;;;;;;3.42;78.55;100747.94;4955062;28;19930;-85
2022/03/14 11:39:59;;;;;;;;;;;;;;;3.43;78.60;100743.56;4955520;28;19925;-86
2022/03/14 11:42:24;;;;;;;;;;;;;;;3.42;78.72;100742.69;4955335;28;19923;-84
2022/03/14 11:44:50;;;;;;;;;;;;;;;3.45;78.61;100741.84;4955130;28;20374;-84
2022/03/14 11:47:18;;;;;;;;;;;;;;;3.47;78.47;100745.31;4954788;29;20370;-84
2022/03/14 11:49:44;;;;;;;;;;;;;;;3.49;78.25;100750.56;4956408;29;19919;-85
2022/03/14 11:52:11;;;;;;;;;;;;;;;3.52;78.06;100742.72;4954668;29;19945;-84
2022/03/14 11:54:41;;;;;;;;;;;;;;;3.47;77.95;100749.69;4977529;28;20332;-84
2022/03/14 11:57:07;;;;;;;;;;;;;;;3.50;77.92;100739.22;4955907;29;19930;-85
2022/03/14 11:59:34;;;;;;;;;;;;;;;3.49;77.61;100747.94;4969372;28;20378;-85
2022/03/14 12:02:03;;;;;;;;;;;;;;;3.52;77.98;100740.09;4955466;28;19925;-85
2022/03/14 12:04:33;;;;;;;;;;;;;;;3.54;78.04;100748.81;4954836;28;20055;-84
2022/03/14 12:06:59;;;;;;;;;;;;;;;3.53;78.21;100749.72;4953605;28;19926;-83
2022/03/14 12:09:24;;;;;;;;;;;;;;;3.56;78.23;100760.22;4977350;28;19930;-85
2022/03/14 12:11:50;;;;;;;;;;;;;;;3.58;78.06;100755.84;4954463;28;20031;-84
2022/03/14 12:14:35;;;;;;;;;;;;;;;3.57;78.19;100751.44;4955648;28;19923;-84
2022/03/14 12:17:12;;;;;;;;;;;;;;;3.58;78.29;100745.34;4948347;28;20283;-85
2022/03/14 12:19:40;;;;;;;;;;;;;;;3.61;78.19;100747.97;4955140;28;20488;-85
2022/03/14 12:22:06;;;;;;;;;;;;;;;3.62;78.07;100745.34;4953404;29;19924;-88
2022/03/14 12:24:34;;;;;;;;;;;;;;;3.63;77.76;100743.59;4954038;28;20006;-85
2022/03/14 12:27:00;;;;;;;;;;;;;;;3.65;77.80;100752.31;4969281;28;20516;-85
2022/03/14 12:29:35;;;;;;;;;;;;;;;3.67;77.89;100747.97;4954399;28;20014;-84
2022/03/14 12:32:19;;;;;;;;;;;;;;;3.66;77.95;100743.59;4955680;28;20009;-84
2022/03/14 12:34:54;;;;;;;;;;;;;;;3.70;78.28;100740.13;4954222;28;19922;-84
2022/03/14 12:37:35;;;;;;;;;;;;;;;3.72;78.21;100730.50;4954348;28;19997;-85
2022/03/14 12:40:01;;;;;;;;;;;;;;;3.74;78.43;100726.13;4953951;28;19918;-86
2022/03/14 12:42:26;;;;;;;;;;;;;;;3.74;77.96;100713.03;4955521;28;19934;-84
2022/03/14 12:45:10;;;;;;;;;;;;;;;3.77;77.96;100720.88;4954090;29;19918;-84
2022/03/14 12:47:40;;;;;;;;;;;;;;;3.76;78.13;100711.25;4955464;29;19972;-85
2022/03/14 12:50:05;;;;;;;;;;;;;;;3.84;78.55;100713.03;4955255;28;20009;-84
2022/03/14 12:52:30;;;;;;;;;;;;;;;4.00;79.70;100714.75;4953296;28;20049;-85
2022/03/14 12:54:56;;;;;;;;;;;;;;;4.10;81.90;100724.38;4954976;28;19977;-84
2022/03/14 12:57:22;;;;;;;;;;;;;;;4.17;84.18;100727.84;4953891;28;19926;-85
2022/03/14 12:59:57;;;;;;;;;;;;;;;4.17;85.56;100733.97;4953030;29;20383;-85
2022/03/14 13:02:23;;;;;;;;;;;;;;;4.12;86.83;100730.47;4978268;28;20266;-85
2022/03/14 13:04:58;;;;;;;;;;;;;;;4.10;87.93;100728.72;4954998;28;19987;-84
2022/03/14 13:07:24;;;;;;;;;;;;;;;4.06;88.94;100725.22;4976587;28;20447;-84
2022/03/14 13:09:50;;;;;;;;;;;;;;;3.95;89.88;100721.75;4954071;28;20021;-84
2022/03/14 13:12:16;;;;;;;;;;;;;;;3.87;90.49;100720.88;4954860;29;19923;-85
2022/03/14 13:14:43;;;;;;;;;;;;;;;3.82;91.21;100718.25;4953089;28;20396;-84
2022/03/14 13:17:08;;;;;;;;;;;;;;;3.65;91.68;100723.50;4954427;28;20394;-84
2022/03/14 13:19:35;;;;;;;;;;;;;;;3.61;92.18;100727.00;4953217;28;20016;-87
2022/03/14 13:22:10;;;;;;;;;;;;;;;3.72;92.87;100730.50;4951053;28;19923;-84
2022/03/14 13:24:36;;;;;;;;;;;;;;;3.72;94.19;100724.38;4968228;28;19923;-84
2022/03/14 13:27:01;;;;;;;;;;;;;;;3.85;96.93;100727.88;4954300;28;19926;-85
2022/03/14 13:29:32;;;;;;;;;;;;;;;4.09;100.00;100725.22;4953149;28;19922;-84
2022/03/14 13:31:59;;;;;;;;;;;;;;;4.27;100.00;100728.69;4952684;29;19957;-84
2022/03/14 13:34:26;;;;;;;;;;;;;;;4.37;100.00;100727.78;4952747;28;20022;-84
2022/03/14 13:36:52;;;;;;;;;;;;;;;4.45;100.00;100728.69;4953712;28;19922;-85
2022/03/14 13:39:18;;;;;;;;;;;;;;;4.53;100.00;100724.28;4953054;29;20293;-84
2022/03/14 13:41:43;;;;;;;;;;;;;;;4.59;100.00;100704.97;4954458;28;19929;-84
2022/03/14 13:44:13;;;;;;;;;;;;;;;4.63;100.00;100711.97;4954062;28;19927;-86
2022/03/14 13:46:43;;;;;;;;;;;;;;;4.66;100.00;100708.44;4952501;28;19965;-86
2022/03/14 13:49:23;;;;;;;;;;;;;;;4.67;100.00;100697.94;4954166;28;19954;-85
2022/03/14 13:51:55;;;;;;;;;;;;;;;4.70;100.00;100697.94;4952929;28;20394;-85
2022/03/14 13:54:24;;;;;;;;;;;;;;;4.73;100.00;100694.44;4952888;28;19949;-84
2022/03/14 13:56:50;;;;;;;;;;;;;;;4.76;100.00;100690.94;4953892;29;19922;-84
2022/03/14 13:59:26;;;;;;;;;;;;;;;4.80;100.00;100683.00;4954203;28;20308;-84
2022/03/14 14:01:53;;;;;;;;;;;;;;;4.80;100.00;100683.00;4952721;29;19918;-87
2022/03/14 14:04:24;;;;;;;;;;;;;;;4.82;100.00;100686.53;4951246;28;19923;-84
2022/03/14 14:06:50;;;;;;;;;;;;;;;4.87;100.00;100700.50;4952710;29;19978;-87
2022/03/14 14:09:25;;;;;;;;;;;;;;;4.88;100.00;100699.63;4950813;28;19933;-85
2022/03/14 14:12:01;;;;;;;;;;;;;;;4.85;100.00;100698.75;4954024;28;20026;-86
2022/03/14 14:14:27;;;;;;;;;;;;;;;4.86;100.00;100700.50;4953274;29;19930;-84
2022/03/14 14:16:53;;;;;;;;;;;;;;;4.89;100.00;100701.34;4952694;29;20014;-84
2022/03/14 14:19:18;;;;;;;;;;;;;;;4.87;100.00;100707.50;4952986;28;20016;-85
2022/03/14 14:21:54;;;;;;;;;;;;;;;4.92;100.00;100695.22;4954013;29;20361;-85
2022/03/14 14:24:23;;;;;;;;;;;;;;;4.97;100.00;100690.81;4950359;29;19927;-86
2022/03/14 14:26:49;;;;;;;;;;;;;;;4.96;100.00;100699.56;4953717;28;20361;-86
2022/03/14 14:29:33;;;;;;;;;;;;;;;4.30;100.00;100705.09;4953406;28;19918;-86
2022/03/14 14:32:14;;;;;;;;;;;;;;;3.71;100.00;100713.03;4953766;29;19923;-84
2022/03/14 14:34:39;;;;;;;;;;;;;;;3.50;100.00;100719.13;4953298;28;19928;-83
2022/03/14 14:37:04;;;;;;;;;;;;;;;3.45;100.00;100724.38;4951874;28;19922;-86
2022/03/14 14:39:30;;;;;;;;;;;;;;;3.26;100.00;100730.44;4952566;29;20009;-84
2022/03/14 14:42:04;;;;;;;;;;;;;;;3.31;100.00;100728.69;4953701;29;19926;-84
2022/03/14 14:44:29;;;;;;;;;;;;;;;3.27;100.00;100726.94;4953531;28;20285;-84
2022/03/14 14:46:55;;;;;;;;;;;;;;;3.28;100.00;100728.69;4953512;28;19925;-84
2022/03/14 14:49:21;;;;;;;;;;;;;;;3.15;100.00;100733.03;4950281;28;20032;-83
2022/03/14 14:51:46;;;;;;;;;;;;;;;3.18;100.00;100742.66;4953490;29;19918;-84
2022/03/14 14:54:12;;;;;;;;;;;;;;;3.22;100.00;100740.06;4951224;28;19919;-84
2022/03/14 14:56:37;;;;;;;;;;;;;;;3.07;100.00;100750.47;4953543;28;19927;-83
2022/03/14 14:59:03;;;;;;;;;;;;;;;3.01;100.00;100746.06;4956767;28;20415;-83
2022/03/14 15:01:28;;;;;;;;;;;;;;;3.00;100.00;100744.34;4957422;28;19926;-84
2022/03/14 15:03:57;;;;;;;;;;;;;;;2.98;99.80;100739.97;4979832;28;19926;-84
2022/03/14 15:06:22;;;;;;;;;;;;;;;2.98;99.49;100745.19;4957096;28;19918;-84
2022/03/14 15:08:47;;;;;;;;;;;;;;;3.03;98.80;100736.50;4956137;28;20259;-84
2022/03/14 15:11:13;;;;;;;;;;;;;;;2.97;98.25;100727.72;4955736;28;19919;-83
2022/03/14 15:13:38;;;;;;;;;;;;;;;2.96;98.10;100726.88;4955024;28;19946;-84
2022/03/14 15:16:04;;;;;;;;;;;;;;;2.94;97.78;100726.00;4955719;28;19958;-83
2022/03/14 15:18:29;;;;;;;;;;;;;;;2.98;97.27;100719.88;4955820;29;20411;-83
2022/03/14 15:20:54;;;;;;;;;;;;;;;2.90;96.68;100714.66;4957023;28;19923;-83
2022/03/14 15:23:20;;;;;;;;;;;;;;;2.86;96.29;100714.63;4955562;28;19923;-86
2022/03/14 15:25:45;;;;;;;;;;;;;;;2.94;96.14;100712.91;4955760;28;20014;-85
2022/03/14 15:28:11;;;;;;;;;;;;;;;2.83;95.91;100712.00;4956792;28;19918;-85
2022/03/14 15:30:42;;;;;;;;;;;;;;;2.79;96.01;100712.84;4954005;29;20377;-83
2022/03/14 15:33:07;;;;;;;;;;;;;;;2.85;95.60;100711.13;4955310;29;20275;-84
2022/03/14 15:35:33;;;;;;;;;;;;;;;2.84;95.07;100708.50;4954688;28;19950;-84
2022/03/14 15:38:01;;;;;;;;;;;;;;;2.79;94.50;100703.25;4953708;28;20038;-83
2022/03/14 15:40:28;;;;;;;;;;;;;;;2.89;93.73;100705.03;4979377;28;19921;-84
2022/03/14 15:42:53;;;;;;;;;;;;;;;2.86;93.38;100704.16;4956905;28;20263;-85
2022/03/14 15:45:20;;;;;;;;;;;;;;;2.80;93.21;100697.13;4955287;28;19930;-84
2022/03/14 15:47:45;;;;;;;;;;;;;;;2.77;93.15;100704.13;4979238;28;19922;-86
2022/03/14 15:50:13;;;;;;;;;;;;;;;2.77;92.64;100694.50;4956290;28;19919;-86
2022/03/14 15:52:38;;;;;;;;;;;;;;;2.68;92.89;100695.38;4953186;28;19958;-86
2022/03/14 15:55:05;;;;;;;;;;;;;;;2.75;92.75;100690.16;4978469;28;20021;-86
2022/03/14 15:57:30;;;;;;;;;;;;;;;2.73;92.52;100688.41;4954097;29;19926;-86
2022/03/14 15:59:56;;;;;;;;;;;;;;;2.70;92.35;100688.38;4953449;28;19927;-86
2022/03/14 16:02:21;;;;;;;;;;;;;;;2.71;91.92;100690.16;4953583;28;20498;-85
2022/03/14 16:04:46;;;;;;;;;;;;;;;2.66;91.72;100690.97;4952442;28;19970;-84
2022/03/14 16:07:12;;;;;;;;;;;;;;;2.68;91.38;100686.63;4976396;28;19970;-87
2022/03/14 16:09:38;;;;;;;;;;;;;;;2.66;91.12;100691.84;4977621;28;19930;-84
2022/03/14 16:12:03;;;;;;;;;;;;;;;2.60;91.35;100681.38;4955927;29;19922;-85
2022/03/14 16:14:29;;;;;;;;;;;;;;;2.59;91.34;100677.00;4955977;28;19923;-84
2022/03/14 16:16:55;;;;;;;;;;;;;;;2.59;90.91;100684.84;4953492;29;19927;-84
2022/03/14 16:19:21;;;;;;;;;;;;;;;2.64;90.82;100684.88;4954029;28;19930;-84
2022/03/14 16:21:46;;;;;;;;;;;;;;;2.62;90.26;100679.63;4953550;28;19927;-84
2022/03/14 16:24:12;;;;;;;;;;;;;;;2.64;89.93;100685.75;4978126;28;20348;-84
2022/03/14 16:26:37;;;;;;;;;;;;;;;2.65;89.80;100689.22;4954440;29;19926;-85
2022/03/14 16:29:06;;;;;;;;;;;;;;;2.58;89.79;100698.78;4955871;29;20286;-86
2022/03/14 16:31:33;;;;;;;;;;;;;;;2.54;89.97;100707.53;4953343;28;20357;-85
2022/03/14 16:33:58;;;;;;;;;;;;;;;2.56;89.76;100708.41;4954615;28;19965;-85
2022/03/14 16:36:24;;;;;;;;;;;;;;;2.57;89.51;100710.16;4954125;28;19961;-85
2022/03/14 16:38:49;;;;;;;;;;;;;;;2.62;89.12;100715.41;4952676;28;20403;-85
2022/03/14 16:41:15;;;;;;;;;;;;;;;2.53;88.91;100724.94;4953095;28;19930;-85
2022/03/14 16:43:40;;;;;;;;;;;;;;;2.47;89.10;100726.66;4953542;29;19922;-85
2022/03/14 16:46:05;;;;;;;;;;;;;;;2.47;89.13;100722.31;4977440;28;20017;-85
2022/03/14 16:48:31;;;;;;;;;;;;;;;2.53;89.16;100726.69;4953614;28;19925;-85
2022/03/14 16:50:56;;;;;;;;;;;;;;;2.50;89.09;100724.91;4954164;29;19976;-85
2022/03/14 16:53:22;;;;;;;;;;;;;;;2.51;89.08;100724.06;4951479;28;19918;-85
2022/03/14 16:55:47;;;;;;;;;;;;;;;2.49;89.10;100724.91;4954837;28;19930;-85
2022/03/14 16:58:13;;;;;;;;;;;;;;;2.52;88.57;100723.22;4955143;29;19929;-86
2022/03/14 17:00:42;;;;;;;;;;;;;;;2.55;88.28;100727.56;4952900;28;19953;-84
2022/03/14 17:03:07;;;;;;;;;;;;;;;2.56;87.90;100729.31;4954653;29;20437;-85
2022/03/14 17:05:33;;;;;;;;;;;;;;;2.63;87.78;100722.38;4954246;28;19922;-85
2022/03/14 17:07:59;;;;;;;;;;;;;;;2.52;87.81;100710.13;4952249;28;19930;-85
2022/03/14 17:10:36;;;;;;;;;;;;;;;2.59;87.89;100712.78;4954028;28;19923;-84
2022/03/14 17:13:11;;;;;;;;;;;;;;;2.67;87.37;100718.91;4953048;28;20274;-85
2022/03/14 17:15:38;;;;;;;;;;;;;;;2.49;87.13;100725.81;4954393;29;19930;-85
2022/03/14 17:18:04;;;;;;;;;;;;;;;2.58;87.04;100727.56;4954902;28;19926;-85
2022/03/14 17:20:31;;;;;;;;;;;;;;;2.53;86.49;100732.78;4951933;28;19926;-85
2022/03/14 17:23:00;;;;;;;;;;;;;;;2.60;86.56;100717.13;4967521;28;19965;-85
2022/03/14 17:25:25;;;;;;;;;;;;;;;2.51;86.11;100731.91;4952537;28;19929;-84
2022/03/14 17:27:51;;;;;;;;;;;;;;;2.51;86.18;100737.16;4954652;28;19920;-84
2022/03/14 17:30:16;;;;;;;;;;;;;;;2.50;85.97;100731.91;4952575;28;19926;-85
2022/03/14 17:32:41;;;;;;;;;;;;;;;2.49;86.01;100732.75;4954501;29;19918;-85
2022/03/14 17:35:08;;;;;;;;;;;;;;;2.43;85.44;100730.13;4954623;28;19965;-85
2022/03/14 17:37:35;;;;;;;;;;;;;;;2.41;85.80;100726.63;4951197;28;20271;-84
2022/03/14 17:40:01;;;;;;;;;;;;;;;2.41;85.79;100726.63;4954247;28;19965;-84
2022/03/14 17:42:26;;;;;;;;;;;;;;;2.44;85.84;100724.03;4954217;28;19942;-84
2022/03/14 17:44:52;;;;;;;;;;;;;;;2.44;85.81;100721.41;4952746;28;20285;-84
2022/03/14 17:47:17;;;;;;;;;;;;;;;2.42;85.65;100729.25;4954059;28;19922;-84
2022/03/14 17:49:42;;;;;;;;;;;;;;;2.42;85.56;100731.00;4954273;28;19921;-84
2022/03/14 17:52:07;;;;;;;;;;;;;;;2.38;85.62;100731.81;4951214;28;20362;-84
2022/03/14 17:54:33;;;;;;;;;;;;;;;2.40;85.78;100730.97;4954005;29;19930;-85
2022/03/14 17:56:58;;;;;;;;;;;;;;;2.41;85.77;100740.59;4954338;28;19919;-85
2022/03/14 17:59:23;;;;;;;;;;;;;;;2.40;85.79;100744.06;4976135;28;19977;-85
2022/03/14 18:01:49;;;;;;;;;;;;;;;2.43;85.85;100738.84;4953920;29;19973;-85
2022/03/14 18:04:14;;;;;;;;;;;;;;;2.42;85.81;100737.09;4953993;28;19966;-84
2022/03/14 18:06:40;;;;;;;;;;;;;;;2.41;85.55;100735.34;4952722;28;19954;-84
2022/03/14 18:09:06;;;;;;;;;;;;;;;2.43;85.33;100745.84;4952852;28;20005;-85
2022/03/14 18:11:34;;;;;;;;;;;;;;;2.42;85.41;100739.72;4952653;28;19926;-85
2022/03/14 18:13:59;;;;;;;;;;;;;;;2.43;85.29;100740.59;4968276;28;19918;-85
2022/03/14 18:16:24;;;;;;;;;;;;;;;2.46;85.19;100740.63;4976650;28;20840;-85
2022/03/14 18:18:49;;;;;;;;;;;;;;;2.44;85.20;100750.19;4954056;29;19945;-85
2022/03/14 18:21:18;;;;;;;;;;;;;;;2.48;85.13;100757.19;4952946;29;19915;-85
2022/03/14 18:23:43;;;;;;;;;;;;;;;2.43;84.97;100765.00;4952661;28;19977;-85
2022/03/14 18:26:09;;;;;;;;;;;;;;;2.39;84.79;100764.97;4953887;29;20434;-84
2022/03/14 18:28:34;;;;;;;;;;;;;;;2.41;84.55;100773.69;4952454;29;19929;-85
2022/03/14 18:31:00;;;;;;;;;;;;;;;2.42;84.50;100772.84;4950080;29;19927;-86
2022/03/14 18:33:25;;;;;;;;;;;;;;;2.41;84.55;100766.75;4953641;28;20373;-87
2022/03/14 18:35:50;;;;;;;;;;;;;;;2.41;84.41;100769.38;4977101;28;20009;-86
2022/03/14 18:38:16;;;;;;;;;;;;;;;2.45;84.34;100775.50;4952738;28;19922;-85
2022/03/14 18:40:41;;;;;;;;;;;;;;;2.43;83.98;100782.47;4953144;28;20016;-85
2022/03/14 18:43:07;;;;;;;;;;;;;;;2.44;83.68;100785.09;4952290;28;19926;-85
2022/03/14 18:45:32;;;;;;;;;;;;;;;2.42;83.66;100791.16;4953708;28;19919;-86
2022/03/14 18:47:58;;;;;;;;;;;;;;;2.41;83.55;100789.41;4953546;28;19927;-85
2022/03/14 18:50:27;;;;;;;;;;;;;;;2.42;83.27;100788.53;4951521;29;19923;-85
2022/03/14 18:52:53;;;;;;;;;;;;;;;2.44;83.02;100786.81;4952285;28;19918;-86
2022/03/14 18:55:18;;;;;;;;;;;;;;;2.42;82.78;100791.16;4952964;28;20535;-85
2022/03/14 18:57:43;;;;;;;;;;;;;;;2.42;82.76;100792.03;4951364;28;19930;-85
2022/03/14 19:00:10;;;;;;;;;;;;;;;2.47;82.75;100792.97;4953139;28;20035;-85
2022/03/14 19:02:35;;;;;;;;;;;;;;;2.47;82.56;100797.28;4951951;28;19918;-85
2022/03/14 19:05:00;;;;;;;;;;;;;;;2.46;82.61;100787.72;4951756;28;20390;-85
2022/03/14 19:07:26;;;;;;;;;;;;;;;2.45;82.59;100796.41;4951364;29;19930;-85
2022/03/14 19:09:53;;;;;;;;;;;;;;;2.46;82.16;100795.56;4953366;29;19954;-85
2022/03/14 19:12:19;;;;;;;;;;;;;;;2.48;81.88;100799.91;4952171;29;19922;-85
2022/03/14 19:14:45;;;;;;;;;;;;;;;2.45;81.65;100799.03;4953232;28;19926;-85
2022/03/14 19:17:12;;;;;;;;;;;;;;;2.47;81.63;100797.28;4953285;28;19969;-85
2022/03/14 19:19:37;;;;;;;;;;;;;;;2.45;81.58;100802.50;4951120;28;19923;-85
2022/03/14 19:22:02;;;;;;;;;;;;;;;2.47;81.42;100803.44;4974884;28;19929;-85
2022/03/14 19:24:28;;;;;;;;;;;;;;;2.46;81.28;100803.41;4952840;28;19923;-85
2022/03/14 19:26:53;;;;;;;;;;;;;;;2.46;81.11;100801.66;4975915;28;19925;-85
2022/03/14 19:29:18;;;;;;;;;;;;;;;2.50;80.83;100808.66;4953244;28;19925;-85
2022/03/14 19:31:46;;;;;;;;;;;;;;;2.50;80.69;100803.41;4953252;29;19919;-84
2022/03/14 19:34:11;;;;;;;;;;;;;;;2.48;80.53;100812.13;4952035;29;19923;-84
2022/03/14 19:36:40;;;;;;;;;;;;;;;2.49;80.54;100813.88;4951960;29;20551;-85
2022/03/14 19:39:06;;;;;;;;;;;;;;;2.51;80.43;100813.03;4952183;29;19918;-85
2022/03/14 19:41:31;;;;;;;;;;;;;;;2.49;80.54;100821.72;4951872;29;20263;-85
2022/03/14 19:43:57;;;;;;;;;;;;;;;2.53;80.80;100815.66;4955924;28;19926;-85
2022/03/14 19:46:23;;;;;;;;;;;;;;;2.53;80.83;100811.28;4956645;29;19961;-85
2022/03/14 19:48:49;;;;;;;;;;;;;;;2.52;80.74;100817.41;4954588;29;19925;-85
2022/03/14 19:51:15;;;;;;;;;;;;;;;2.53;80.71;100820.88;4955077;29;20315;-85
2022/03/14 19:53:40;;;;;;;;;;;;;;;2.51;80.48;100817.38;4954124;28;19926;-85
2022/03/14 19:56:06;;;;;;;;;;;;;;;2.49;80.37;100817.38;4954515;29;20363;-85
2022/03/14 19:58:31;;;;;;;;;;;;;;;2.50;79.93;100813.88;4955361;28;19978;-85
2022/03/14 20:00:56;;;;;;;;;;;;;;;2.52;79.90;100811.28;4955161;29;19927;-85
2022/03/14 20:03:23;;;;;;;;;;;;;;;2.51;79.73;100809.53;4970411;28;19926;-86
2022/03/14 20:05:51;;;;;;;;;;;;;;;2.52;79.48;100813.88;4954945;28;19926;-85
2022/03/14 20:08:18;;;;;;;;;;;;;;;2.56;79.56;100817.44;4954965;28;19922;-85
2022/03/14 20:10:43;;;;;;;;;;;;;;;2.56;79.68;100809.56;4954568;28;19926;-85
2022/03/14 20:13:08;;;;;;;;;;;;;;;2.56;79.47;100810.44;4954932;28;19922;-85
2022/03/14 20:15:35;;;;;;;;;;;;;;;2.56;79.28;100810.44;4955890;29;20262;-86
2022/03/14 20:18:01;;;;;;;;;;;;;;;2.60;79.23;100809.59;4978767;28;19979;-85
2022/03/14 20:20:26;;;;;;;;;;;;;;;2.59;78.99;100812.22;4954452;28;19966;-84
2022/03/14 20:22:52;;;;;;;;;;;;;;;2.62;78.84;100820.94;4954475;28;19922;-84
2022/03/14 20:25:19;;;;;;;;;;;;;;;2.60;78.97;100817.47;4954446;28;19930;-85
2022/03/14 20:27:46;;;;;;;;;;;;;;;2.62;78.82;100825.31;4955490;28;19918;-85
2022/03/14 20:30:12;;;;;;;;;;;;;;;2.61;78.67;100827.03;4955038;28;19926;-84